Time;durP1;ratioP1;P1;durP2;ratioP2;P2;SDS_P1;SDS_P2;PMS_P1;PMS_P2;Temp;Humidity;BMP_temperature;BMP_pressure;BME280_temperature;BME280_humidity;BME280_pressure;Samples;Min_cycle;Max_cycle;Signal;HPM_P1;HPM_P2
2022/11/09 00:01:27;;;;;;;;;;;;;;;;;;4911434;29;19915;-75
2022/11/09 00:04:14;;;;;;;;;;;;;;;;;;4909337;29;20338;-75
2022/11/09 00:07:00;;;;;;;;;;;;;;;;;;4902651;29;19915;-75
2022/11/09 00:09:47;;;;;;;;;;;;;;;;;;4907086;29;19918;-75
2022/11/09 00:12:33;;;;;;;;;;;;;;;;;;4906485;29;19925;-75
2022/11/09 00:15:20;;;;;;;;;;;;;;;;;;4897160;29;19915;-75
2022/11/09 00:18:06;;;;;;;;;;;;;;;;;;4898331;29;20269;-75
2022/11/09 00:20:53;;;;;;;;;;;;;;;;;;4910571;29;19921;-75
2022/11/09 00:23:39;;;;;;;;;;;;;;;;;;4909975;29;20358;-75
2022/11/09 00:26:26;;;;;;;;;;;;;;;;;;4903907;29;19915;-75
2022/11/09 00:29:12;;;;;;;;;;;;;;;;;;4885654;29;19981;-75
2022/11/09 00:31:58;;;;;;;;;;;;;;;;;;4907066;29;19923;-75
2022/11/09 00:34:45;;;;;;;;;;;;;;;;;;4904815;29;19915;-75
2022/11/09 00:37:31;;;;;;;;;;;;;;;;;;4909489;29;19933;-75
2022/11/09 00:40:18;;;;;;;;;;;;;;;;;;4910291;29;19954;-75
2022/11/09 00:43:04;;;;;;;;;;;;;;;;;;4911254;29;19918;-75
2022/11/09 00:45:51;;;;;;;;;;;;;;;;;;4911485;29;19922;-75
2022/11/09 00:48:37;;;;;;;;;;;;;;;;;;4905670;29;19915;-75
2022/11/09 00:51:24;;;;;;;;;;;;;;;;;;4911612;29;19922;-75
2022/11/09 00:54:10;;;;;;;;;;;;;;;;;;4908408;29;19915;-76
2022/11/09 00:56:57;;;;;;;;;;;;;;;;;;4908673;29;19923;-75
2022/11/09 00:59:43;;;;;;;;;;;;;;;;;;4896411;29;19923;-74
2022/11/09 01:02:30;;;;;;;;;;;;;;;;;;4905400;29;19942;-75
2022/11/09 01:05:16;;;;;;;;;;;;;;;;;;4908235;29;19927;-75
2022/11/09 01:08:03;;;;;;;;;;;;;;;;;;4904857;29;19919;-75
2022/11/09 01:10:49;;;;;;;;;;;;;;;;;;4910995;29;19919;-74
2022/11/09 01:13:35;;;;;;;;;;;;;;;;;;4910429;29;19947;-75
2022/11/09 01:16:22;;;;;;;;;;;;;;;;;;4895128;29;19930;-75
2022/11/09 01:19:08;;;;;;;;;;;;;;;;;;4903279;29;19920;-75
2022/11/09 01:21:55;;;;;;;;;;;;;;;;;;4907031;29;20359;-75
2022/11/09 01:24:41;;;;;;;;;;;;;;;;;;4903134;29;19915;-75
2022/11/09 01:27:28;;;;;;;;;;;;;;;;;;4907642;29;19919;-75
2022/11/09 01:30:14;;;;;;;;;;;;;;;;;;4899014;29;19929;-75
2022/11/09 01:33:01;;;;;;;;;;;;;;;;;;4904828;29;20196;-74
2022/11/09 01:35:47;;;;;;;;;;;;;;;;;;4897559;29;20648;-75
2022/11/09 01:38:34;;;;;;;;;;;;;;;;;;4913784;29;19934;-75
2022/11/09 01:41:20;;;;;;;;;;;;;;;;;;4912738;29;20261;-75
2022/11/09 01:44:07;;;;;;;;;;;;;;;;;;4913897;29;19926;-74
2022/11/09 01:46:53;;;;;;;;;;;;;;;;;;4897296;29;19918;-74
2022/11/09 01:49:40;;;;;;;;;;;;;;;;;;4903519;29;19917;-74
2022/11/09 01:52:26;;;;;;;;;;;;;;;;;;4897640;29;19911;-73
2022/11/09 01:55:13;;;;;;;;;;;;;;;;;;4912931;29;20339;-74
2022/11/09 01:57:59;;;;;;;;;;;;;;;;;;4911853;29;19919;-74
2022/11/09 02:00:46;;;;;;;;;;;;;;;;;;4910449;29;20299;-74
2022/11/09 02:03:32;;;;;;;;;;;;;;;;;;4911550;29;19933;-74
2022/11/09 02:06:19;;;;;;;;;;;;;;;;;;4907605;29;19930;-75
2022/11/09 02:09:05;;;;;;;;;;;;;;;;;;4914934;29;19911;-74
2022/11/09 02:11:51;;;;;;;;;;;;;;;;;;4908598;29;19922;-75
2022/11/09 02:14:38;;;;;;;;;;;;;;;;;;4913925;29;20394;-75
2022/11/09 02:17:24;;;;;;;;;;;;;;;;;;4910638;29;19919;-74
2022/11/09 02:20:11;;;;;;;;;;;;;;;;;;4913616;29;19911;-74
2022/11/09 02:22:57;;;;;;;;;;;;;;;;;;4914479;29;19933;-75
2022/11/09 02:25:44;;;;;;;;;;;;;;;;;;4908803;29;19957;-74
2022/11/09 02:28:30;;;;;;;;;;;;;;;;;;4909694;29;19915;-74
2022/11/09 02:31:17;;;;;;;;;;;;;;;;;;4913109;29;19915;-74
2022/11/09 02:34:04;;;;;;;;;;;;;;;;;;4903999;29;19923;-74
2022/11/09 02:36:50;;;;;;;;;;;;;;;;;;4914061;29;20419;-74
2022/11/09 02:39:37;;;;;;;;;;;;;;;;;;4904144;29;19946;-74
2022/11/09 02:42:23;;;;;;;;;;;;;;;;;;4910049;29;19911;-74
2022/11/09 02:45:10;;;;;;;;;;;;;;;;;;4912932;29;20284;-73
2022/11/09 02:47:56;;;;;;;;;;;;;;;;;;4913790;29;19918;-74
2022/11/09 02:50:42;;;;;;;;;;;;;;;;;;4904268;29;20520;-73
2022/11/09 02:53:29;;;;;;;;;;;;;;;;;;4913772;29;19915;-74
2022/11/09 02:56:15;;;;;;;;;;;;;;;;;;4902079;29;19938;-74
2022/11/09 02:59:02;;;;;;;;;;;;;;;;;;4900095;29;19926;-74
2022/11/09 03:01:48;;;;;;;;;;;;;;;;;;4907845;29;19915;-74
2022/11/09 03:04:35;;;;;;;;;;;;;;;;;;4890070;29;19927;-75
2022/11/09 03:07:21;;;;;;;;;;;;;;;;;;4888445;29;19962;-73
2022/11/09 03:10:08;;;;;;;;;;;;;;;;;;4885911;29;19922;-73
2022/11/09 03:12:54;;;;;;;;;;;;;;;;;;4880759;29;20291;-74
2022/11/09 03:15:41;;;;;;;;;;;;;;;;;;4894792;29;19922;-74
2022/11/09 03:18:27;;;;;;;;;;;;;;;;;;4879876;29;20450;-74
2022/11/09 03:21:13;;;;;;;;;;;;;;;;;;4889973;29;19945;-74
2022/11/09 03:24:00;;;;;;;;;;;;;;;;;;4879551;29;19938;-75
2022/11/09 03:26:46;;;;;;;;;;;;;;;;;;4892760;29;19919;-75
2022/11/09 03:29:33;;;;;;;;;;;;;;;;;;4894640;29;19942;-74
2022/11/09 03:32:19;;;;;;;;;;;;;;;;;;4878005;29;19916;-74
2022/11/09 03:35:06;;;;;;;;;;;;;;;;;;4888274;29;19924;-74
2022/11/09 03:37:52;;;;;;;;;;;;;;;;;;4886630;29;19923;-74
2022/11/09 03:40:39;;;;;;;;;;;;;;;;;;4889773;29;19912;-75
2022/11/09 03:43:25;;;;;;;;;;;;;;;;;;4888616;29;20401;-74
2022/11/09 03:46:12;;;;;;;;;;;;;;;;;;4888082;29;19912;-74
2022/11/09 03:48:58;;;;;;;;;;;;;;;;;;4889649;29;19923;-74
2022/11/09 03:51:45;;;;;;;;;;;;;;;;;;4883351;29;20477;-74
2022/11/09 03:54:31;;;;;;;;;;;;;;;;;;4882042;29;19916;-74
2022/11/09 03:57:17;;;;;;;;;;;;;;;;;;4885319;29;20277;-74
2022/11/09 04:00:04;;;;;;;;;;;;;;;;;;4890542;29;19915;-74
2022/11/09 04:02:51;;;;;;;;;;;;;;;;;;4892933;29;19928;-75
2022/11/09 04:05:37;;;;;;;;;;;;;;;;;;4906194;29;19926;-74
2022/11/09 04:08:24;;;;;;;;;;;;;;;;;;4901751;29;19976;-74
2022/11/09 04:11:10;;;;;;;;;;;;;;;;;;4907523;29;19942;-74
2022/11/09 04:13:56;;;;;;;;;;;;;;;;;;4917644;29;19914;-75
2022/11/09 04:16:43;;;;;;;;;;;;;;;;;;4911777;29;19923;-75
2022/11/09 04:19:29;;;;;;;;;;;;;;;;;;4900281;29;19923;-75
2022/11/09 04:22:16;;;;;;;;;;;;;;;;;;4905628;29;20323;-74
2022/11/09 04:25:02;;;;;;;;;;;;;;;;;;4904208;29;20367;-74
2022/11/09 04:27:49;;;;;;;;;;;;;;;;;;4909202;29;19926;-74
2022/11/09 04:30:35;;;;;;;;;;;;;;;;;;4908096;29;20295;-75
2022/11/09 04:33:22;;;;;;;;;;;;;;;;;;4898469;29;19923;-74
2022/11/09 04:36:08;;;;;;;;;;;;;;;;;;4895602;29;19934;-74
2022/11/09 04:38:55;;;;;;;;;;;;;;;;;;4899270;29;19911;-74
2022/11/09 04:41:41;;;;;;;;;;;;;;;;;;4909649;29;19923;-74
2022/11/09 04:44:28;;;;;;;;;;;;;;;;;;4891391;29;19937;-74
2022/11/09 04:47:14;;;;;;;;;;;;;;;;;;4908428;29;19926;-74
2022/11/09 04:50:01;;;;;;;;;;;;;;;;;;4910936;29;19919;-73
2022/11/09 04:52:47;;;;;;;;;;;;;;;;;;4902398;29;19919;-73
2022/11/09 04:55:34;;;;;;;;;;;;;;;;;;4885105;29;19989;-74
2022/11/09 04:58:20;;;;;;;;;;;;;;;;;;4898822;29;19919;-74
2022/11/09 05:01:07;;;;;;;;;;;;;;;;;;4894214;29;19918;-73
2022/11/09 05:03:53;;;;;;;;;;;;;;;;;;4895731;29;19935;-73
2022/11/09 05:06:40;;;;;;;;;;;;;;;;;;4903848;29;20001;-73
2022/11/09 05:09:26;;;;;;;;;;;;;;;;;;4909193;29;19911;-73
2022/11/09 05:12:13;;;;;;;;;;;;;;;;;;4901776;29;20380;-73
2022/11/09 05:14:59;;;;;;;;;;;;;;;;;;4911528;29;19915;-73
2022/11/09 05:17:45;;;;;;;;;;;;;;;;;;4908708;29;19919;-73
2022/11/09 05:20:32;;;;;;;;;;;;;;;;;;4906344;29;20287;-74
2022/11/09 05:26:24;;;;;;;;;;;;;;;;;;4901590;29;19915;-73
2022/11/09 05:29:10;;;;;;;;;;;;;;;;;;4902419;29;19920;-74
2022/11/09 05:31:57;;;;;;;;;;;;;;;;;;4903727;29;19918;-75
2022/11/09 05:34:43;;;;;;;;;;;;;;;;;;4898645;29;19922;-75
2022/11/09 05:37:29;;;;;;;;;;;;;;;;;;4903016;29;20311;-74
2022/11/09 05:40:16;;;;;;;;;;;;;;;;;;4902094;29;19922;-75
2022/11/09 05:43:02;;;;;;;;;;;;;;;;;;4910969;29;19922;-74
2022/11/09 05:45:49;;;;;;;;;;;;;;;;;;4909681;29;20461;-74
2022/11/09 05:48:35;;;;;;;;;;;;;;;;;;4898242;29;19916;-75
2022/11/09 05:51:22;;;;;;;;;;;;;;;;;;4912175;29;20286;-74
2022/11/09 05:54:08;;;;;;;;;;;;;;;;;;4904697;29;19925;-75
2022/11/09 05:56:55;;;;;;;;;;;;;;;;;;4910990;29;20275;-75
2022/11/09 05:59:41;;;;;;;;;;;;;;;;;;4903115;29;19915;-75
2022/11/09 06:02:28;;;;;;;;;;;;;;;;;;4903982;29;19950;-74
2022/11/09 06:05:15;;;;;;;;;;;;;;;;;;4910295;29;19915;-75
2022/11/09 06:08:02;;;;;;;;;;;;;;;;;;4914200;29;19911;-75
2022/11/09 06:10:48;;;;;;;;;;;;;;;;;;4913135;29;19915;-75
2022/11/09 06:13:35;;;;;;;;;;;;;;;;;;4913860;29;20514;-74
2022/11/09 06:16:21;;;;;;;;;;;;;;;;;;4902822;29;19927;-75
2022/11/09 06:19:08;;;;;;;;;;;;;;;;;;4902735;29;19919;-75
2022/11/09 06:21:54;;;;;;;;;;;;;;;;;;4897970;29;19934;-75
2022/11/09 06:24:41;;;;;;;;;;;;;;;;;;4902883;29;19919;-75
2022/11/09 06:27:27;;;;;;;;;;;;;;;;;;4912384;29;19916;-75
2022/11/09 06:30:14;;;;;;;;;;;;;;;;;;4912273;29;20203;-75
2022/11/09 06:33:00;;;;;;;;;;;;;;;;;;4911554;29;19923;-75
2022/11/09 06:35:47;;;;;;;;;;;;;;;;;;4914132;29;20269;-75
2022/11/09 06:38:33;;;;;;;;;;;;;;;;;;4914153;29;19920;-75
2022/11/09 06:41:20;;;;;;;;;;;;;;;;;;4911752;29;19927;-74
2022/11/09 06:44:06;;;;;;;;;;;;;;;;;;4906256;29;19911;-74
2022/11/09 06:46:53;;;;;;;;;;;;;;;;;;4902190;29;19915;-75
2022/11/09 06:49:39;;;;;;;;;;;;;;;;;;4905420;29;19911;-74
2022/11/09 06:52:26;;;;;;;;;;;;;;;;;;4900588;29;19959;-75
2022/11/09 06:55:12;;;;;;;;;;;;;;;;;;4909146;29;19922;-75
2022/11/09 06:57:59;;;;;;;;;;;;;;;;;;4906819;29;20260;-75
2022/11/09 07:00:45;;;;;;;;;;;;;;;;;;4907910;29;19959;-75
2022/11/09 07:03:32;;;;;;;;;;;;;;;;;;4906460;29;19931;-75
2022/11/09 07:06:18;;;;;;;;;;;;;;;;;;4913601;29;19941;-75
2022/11/09 07:09:05;;;;;;;;;;;;;;;;;;4908377;29;19919;-76
2022/11/09 07:11:51;;;;;;;;;;;;;;;;;;4909379;29;19922;-75
2022/11/09 07:14:38;;;;;;;;;;;;;;;;;;4901363;29;19927;-75
2022/11/09 07:17:24;;;;;;;;;;;;;;;;;;4913052;29;19941;-75
2022/11/09 07:20:11;;;;;;;;;;;;;;;;;;4904077;29;20387;-75
2022/11/09 07:22:57;;;;;;;;;;;;;;;;;;4907229;29;20371;-76
2022/11/09 07:25:43;;;;;;;;;;;;;;;;;;4910900;29;19919;-75
2022/11/09 07:28:30;;;;;;;;;;;;;;;;;;4909048;29;19919;-76
2022/11/09 07:31:16;;;;;;;;;;;;;;;;;;4908917;29;20224;-76
2022/11/09 07:34:03;;;;;;;;;;;;;;;;;;4898581;29;19919;-76
2022/11/09 07:36:50;;;;;;;;;;;;;;;;;;4907620;29;19928;-75
2022/11/09 07:39:36;;;;;;;;;;;;;;;;;;4889697;29;20028;-75
2022/11/09 07:42:23;;;;;;;;;;;;;;;;;;4908367;29;19915;-77
2022/11/09 07:45:09;;;;;;;;;;;;;;;;;;4902420;29;19915;-76
2022/11/09 07:47:56;;;;;;;;;;;;;;;;;;4886191;29;19919;-76
2022/11/09 07:50:42;;;;;;;;;;;;;;;;;;4905898;29;19958;-77
2022/11/09 07:53:29;;;;;;;;;;;;;;;;;;4894931;29;19954;-76
2022/11/09 07:56:15;;;;;;;;;;;;;;;;;;4896407;29;19923;-76
2022/11/09 07:59:02;;;;;;;;;;;;;;;;;;4882286;29;19919;-76
2022/11/09 08:01:51;;;;;;;;;;;;;;;;;;4896945;29;20367;-76
2022/11/09 08:04:37;;;;;;;;;;;;;;;;;;4877398;29;19924;-76
2022/11/09 08:07:23;;;;;;;;;;;;;;;;;;4890754;29;20272;-76
2022/11/09 08:10:10;;;;;;;;;;;;;;;;;;4893621;29;19932;-77
2022/11/09 08:12:56;;;;;;;;;;;;;;;;;;4871404;29;20291;-76
2022/11/09 08:15:43;;;;;;;;;;;;;;;;;;4881326;29;19920;-77
2022/11/09 08:18:30;;;;;;;;;;;;;;;;;;4869899;29;20393;-77
2022/11/09 08:21:16;;;;;;;;;;;;;;;;;;4878879;29;19920;-77
2022/11/09 08:24:03;;;;;;;;;;;;;;;;;;4870062;29;19922;-76
2022/11/09 08:26:49;;;;;;;;;;;;;;;;;;4883971;29;19918;-77
2022/11/09 08:29:36;;;;;;;;;;;;;;;;;;4875708;29;19927;-76
2022/11/09 08:32:22;;;;;;;;;;;;;;;;;;4893135;29;19918;-77
2022/11/09 08:35:15;;;;;;;;;;;;;;;;;;4872152;29;19915;-77
2022/11/09 08:38:02;;;;;;;;;;;;;;;;;;4892034;29;19930;-76
2022/11/09 08:40:48;;;;;;;;;;;;;;;;;;4888025;29;19919;-77
2022/11/09 08:43:35;;;;;;;;;;;;;;;;;;4893082;29;19926;-77
2022/11/09 08:46:21;;;;;;;;;;;;;;;;;;4876748;29;19916;-77
2022/11/09 08:49:08;;;;;;;;;;;;;;;;;;4892121;29;19919;-76
2022/11/09 08:51:54;;;;;;;;;;;;;;;;;;4890319;29;19939;-77
2022/11/09 08:54:41;;;;;;;;;;;;;;;;;;4880665;29;19923;-76
2022/11/09 08:57:27;;;;;;;;;;;;;;;;;;4880647;29;19920;-76
2022/11/09 09:00:14;;;;;;;;;;;;;;;;;;4872353;29;20260;-76
2022/11/09 09:03:00;;;;;;;;;;;;;;;;;;4890284;29;19934;-77
2022/11/09 09:05:47;;;;;;;;;;;;;;;;;;4902400;29;19911;-77
2022/11/09 09:08:33;;;;;;;;;;;;;;;;;;4895438;29;19965;-77
2022/11/09 09:11:19;;;;;;;;;;;;;;;;;;4907759;29;19920;-76
2022/11/09 09:14:06;;;;;;;;;;;;;;;;;;4888776;29;20291;-77
2022/11/09 09:16:52;;;;;;;;;;;;;;;;;;4912208;29;19923;-76
2022/11/09 09:19:39;;;;;;;;;;;;;;;;;;4909831;29;19918;-77
2022/11/09 09:22:25;;;;;;;;;;;;;;;;;;4891559;29;20087;-77
2022/11/09 09:25:12;;;;;;;;;;;;;;;;;;4910627;29;19915;-76
2022/11/09 09:27:58;;;;;;;;;;;;;;;;;;4896401;29;19926;-77
2022/11/09 09:30:45;;;;;;;;;;;;;;;;;;4911121;29;19926;-77
2022/11/09 09:33:31;;;;;;;;;;;;;;;;;;4897294;29;19956;-76
2022/11/09 09:36:18;;;;;;;;;;;;;;;;;;4893171;29;20324;-77
2022/11/09 09:39:05;;;;;;;;;;;;;;;;;;4906500;29;20382;-77
2022/11/09 09:41:51;;;;;;;;;;;;;;;;;;4896505;29;19925;-76
2022/11/09 09:44:38;;;;;;;;;;;;;;;;;;4906456;29;19922;-77
2022/11/09 09:47:32;;;;;;;;;;;;;;;;;;4900343;29;20375;-77
2022/11/09 09:50:18;;;;;;;;;;;;;;;;;;4893796;29;19921;-77
2022/11/09 09:53:10;;;;;;;;;;;;;;;;;;4889000;29;20290;-77
2022/11/09 09:55:57;;;;;;;;;;;;;;;;;;4903189;29;19919;-76
2022/11/09 09:58:44;;;;;;;;;;;;;;;;;;4891164;29;19923;-76
2022/11/09 10:01:31;;;;;;;;;;;;;;;;;;4909927;29;19919;-76
2022/11/09 10:04:17;;;;;;;;;;;;;;;;;;4901488;29;19934;-77
2022/11/09 10:07:04;;;;;;;;;;;;;;;;;;4896021;29;19927;-76
2022/11/09 10:09:50;;;;;;;;;;;;;;;;;;4897847;29;19934;-76
2022/11/09 10:12:37;;;;;;;;;;;;;;;;;;4895268;29;19915;-76
2022/11/09 10:15:23;;;;;;;;;;;;;;;;;;4897163;29;19919;-76
2022/11/09 10:18:10;;;;;;;;;;;;;;;;;;4889320;29;19930;-76
2022/11/09 10:20:56;;;;;;;;;;;;;;;;;;4907663;29;19915;-76
2022/11/09 10:23:43;;;;;;;;;;;;;;;;;;4888231;29;19915;-76
2022/11/09 10:26:29;;;;;;;;;;;;;;;;;;4891608;29;19922;-76
2022/11/09 10:29:16;;;;;;;;;;;;;;;;;;4912513;29;19911;-76
2022/11/09 10:32:02;;;;;;;;;;;;;;;;;;4915432;29;19915;-76
2022/11/09 10:34:49;;;;;;;;;;;;;;;;;;4908565;29;19915;-76
2022/11/09 10:37:35;;;;;;;;;;;;;;;;;;4900482;29;19938;-76
2022/11/09 10:40:22;;;;;;;;;;;;;;;;;;4886715;29;19935;-77
2022/11/09 10:43:08;;;;;;;;;;;;;;;;;;4896407;29;20371;-76
2022/11/09 10:45:55;;;;;;;;;;;;;;;;;;4897999;29;19922;-76
2022/11/09 10:48:41;;;;;;;;;;;;;;;;;;4885774;29;19916;-77
2022/11/09 10:51:28;;;;;;;;;;;;;;;;;;4891875;29;20374;-76
2022/11/09 10:54:14;;;;;;;;;;;;;;;;;;4914476;29;19911;-75
2022/11/09 10:57:01;;;;;;;;;;;;;;;;;;4911966;29;20394;-75
2022/11/09 10:59:47;;;;;;;;;;;;;;;;;;4911226;29;19977;-80
2022/11/09 11:02:34;;;;;;;;;;;;;;;;;;4910902;29;19930;-77
2022/11/09 11:05:20;;;;;;;;;;;;;;;;;;4897830;29;19925;-78
2022/11/09 11:08:07;;;;;;;;;;;;;;;;;;4913436;29;20446;-79
2022/11/09 11:10:53;;;;;;;;;;;;;;;;;;4888649;29;19919;-78
2022/11/09 11:13:40;;;;;;;;;;;;;;;;;;4891861;29;20013;-78
2022/11/09 11:16:26;;;;;;;;;;;;;;;;;;4896796;29;19922;-78
2022/11/09 11:19:13;;;;;;;;;;;;;;;;;;4892775;29;19919;-78
2022/11/09 11:21:59;;;;;;;;;;;;;;;;;;4895637;29;19918;-78
2022/11/09 11:24:46;;;;;;;;;;;;;;;;;;4906434;29;19938;-78
2022/11/09 11:27:32;;;;;;;;;;;;;;;;;;4893916;29;19919;-79
2022/11/09 11:30:21;;;;;;;;;;;;;;;;;;4910607;29;19915;-77
2022/11/09 11:33:08;;;;;;;;;;;;;;;;;;4911108;29;19919;-79
2022/11/09 11:35:54;;;;;;;;;;;;;;;;;;4905863;29;20367;-79
2022/11/09 11:38:41;;;;;;;;;;;;;;;;;;4909964;29;20367;-79
2022/11/09 11:41:27;;;;;;;;;;;;;;;;;;4895483;29;19911;-79
2022/11/09 11:44:14;;;;;;;;;;;;;;;;;;4913428;29;19938;-79
2022/11/09 11:47:00;;;;;;;;;;;;;;;;;;4896536;29;19919;-79
2022/11/09 11:49:47;;;;;;;;;;;;;;;;;;4900488;29;20299;-79
2022/11/09 11:52:33;;;;;;;;;;;;;;;;;;4887493;29;19919;-78
2022/11/09 11:55:20;;;;;;;;;;;;;;;;;;4887004;29;19919;-78
2022/11/09 11:58:06;;;;;;;;;;;;;;;;;;4889922;29;19923;-78
2022/11/09 12:00:53;;;;;;;;;;;;;;;;;;4901239;29;19931;-78
2022/11/09 12:03:39;;;;;;;;;;;;;;;;;;4888728;29;19923;-78
2022/11/09 12:06:26;;;;;;;;;;;;;;;;;;4892898;29;19916;-78
2022/11/09 12:09:12;;;;;;;;;;;;;;;;;;4889787;29;19915;-78
2022/11/09 12:11:59;;;;;;;;;;;;;;;;;;4889474;29;20216;-77
2022/11/09 12:14:45;;;;;;;;;;;;;;;;;;4902799;29;19911;-78
2022/11/09 12:17:32;;;;;;;;;;;;;;;;;;4885420;29;19929;-78
2022/11/09 12:20:18;;;;;;;;;;;;;;;;;;4894755;29;19919;-76
2022/11/09 12:23:05;;;;;;;;;;;;;;;;;;4903663;29;19919;-75
2022/11/09 12:25:51;;;;;;;;;;;;;;;;;;4903454;29;19917;-74
2022/11/09 12:28:38;;;;;;;;;;;;;;;;;;4894141;29;19911;-75
2022/11/09 12:31:24;;;;;;;;;;;;;;;;;;4897434;29;19918;-75
2022/11/09 12:34:11;;;;;;;;;;;;;;;;;;4901866;29;19911;-74
2022/11/09 12:36:57;;;;;;;;;;;;;;;;;;4900491;29;19926;-75
2022/11/09 12:39:44;;;;;;;;;;;;;;;;;;4907638;29;19915;-74
2022/11/09 12:42:30;;;;;;;;;;;;;;;;;;4891029;29;19911;-74
2022/11/09 12:45:17;;;;;;;;;;;;;;;;;;4907698;29;19935;-74
2022/11/09 12:48:03;;;;;;;;;;;;;;;;;;4904351;29;20367;-73
2022/11/09 12:50:50;;;;;;;;;;;;;;;;;;4911384;29;20341;-74
2022/11/09 12:53:36;;;;;;;;;;;;;;;;;;4896064;29;19922;-75
2022/11/09 12:56:23;;;;;;;;;;;;;;;;;;4911926;29;20714;-74
2022/11/09 12:59:09;;;;;;;;;;;;;;;;;;4905648;29;20576;-76
2022/11/09 13:01:56;;;;;;;;;;;;;;;;;;4909216;29;19918;-75
2022/11/09 13:04:42;;;;;;;;;;;;;;;;;;4910813;29;20328;-74
2022/11/09 13:07:28;;;;;;;;;;;;;;;;;;4906428;29;19923;-74
2022/11/09 13:10:15;;;;;;;;;;;;;;;;;;4902458;29;20473;-74
2022/11/09 13:13:01;;;;;;;;;;;;;;;;;;4918167;29;19918;-74
2022/11/09 13:15:48;;;;;;;;;;;;;;;;;;4912137;29;19921;-74
2022/11/09 13:18:34;;;;;;;;;;;;;;;;;;4892048;29;19923;-74
2022/11/09 13:21:21;;;;;;;;;;;;;;;;;;4911012;29;19911;-74
2022/11/09 13:24:08;;;;;;;;;;;;;;;;;;4911801;29;19934;-74
2022/11/09 13:26:55;;;;;;;;;;;;;;;;;;4911182;29;19915;-74
2022/11/09 13:29:41;;;;;;;;;;;;;;;;;;4919996;29;19923;-74
2022/11/09 13:32:28;;;;;;;;;;;;;;;;;;4909155;29;20662;-74
2022/11/09 13:35:14;;;;;;;;;;;;;;;;;;4911353;29;19922;-74
2022/11/09 13:38:01;;;;;;;;;;;;;;;;;;4911502;29;19930;-75
2022/11/09 13:40:48;;;;;;;;;;;;;;;;;;4911276;29;20331;-75
2022/11/09 13:43:34;;;;;;;;;;;;;;;;;;4913677;29;19917;-75
2022/11/09 13:46:21;;;;;;;;;;;;;;;;;;4910021;29;20406;-75
2022/11/09 13:49:08;;;;;;;;;;;;;;;;;;4902226;29;20247;-75
2022/11/09 13:51:54;;;;;;;;;;;;;;;;;;4912136;29;19985;-75
2022/11/09 13:54:41;;;;;;;;;;;;;;;;;;4909488;29;20301;-75
2022/11/09 13:57:27;;;;;;;;;;;;;;;;;;4902286;29;19920;-75
2022/11/09 14:00:14;;;;;;;;;;;;;;;;;;4904321;29;19919;-75
2022/11/09 14:03:01;;;;;;;;;;;;;;;;;;4912727;29;20378;-76
2022/11/09 14:05:48;;;;;;;;;;;;;;;;;;4906810;29;19916;-75
2022/11/09 14:08:34;;;;;;;;;;;;;;;;;;4899920;29;19911;-74
2022/11/09 14:11:21;;;;;;;;;;;;;;;;;;4905823;29;20083;-75
2022/11/09 14:14:08;;;;;;;;;;;;;;;;;;4904512;29;19950;-75
2022/11/09 14:16:55;;;;;;;;;;;;;;;;;;4906522;29;19915;-75
2022/11/09 14:19:41;;;;;;;;;;;;;;;;;;4909060;29;20296;-75
2022/11/09 14:22:28;;;;;;;;;;;;;;;;;;4887288;29;19912;-75
2022/11/09 14:25:14;;;;;;;;;;;;;;;;;;4901463;29;20290;-75
2022/11/09 14:28:01;;;;;;;;;;;;;;;;;;4888114;29;19915;-74
2022/11/09 14:30:47;;;;;;;;;;;;;;;;;;4907386;29;19911;-75
2022/11/09 14:33:35;;;;;;;;;;;;;;;;;;4913670;29;20364;-75
2022/11/09 14:36:21;;;;;;;;;;;;;;;;;;4897967;29;19915;-74
2022/11/09 14:39:08;;;;;;;;;;;;;;;;;;4891970;29;19923;-75
2022/11/09 14:41:54;;;;;;;;;;;;;;;;;;4896890;29;19915;-75
2022/11/09 14:44:41;;;;;;;;;;;;;;;;;;4910799;29;19911;-74
2022/11/09 14:47:27;;;;;;;;;;;;;;;;;;4908670;29;20395;-75
2022/11/09 14:50:14;;;;;;;;;;;;;;;;;;4912403;29;19922;-74
2022/11/09 14:53:00;;;;;;;;;;;;;;;;;;4906018;29;20374;-74
2022/11/09 14:55:46;;;;;;;;;;;;;;;;;;4902304;29;19915;-75
2022/11/09 14:58:33;;;;;;;;;;;;;;;;;;4901774;29;20315;-75
2022/11/09 15:01:20;;;;;;;;;;;;;;;;;;4900484;29;20295;-75
2022/11/09 15:04:06;;;;;;;;;;;;;;;;;;4909045;29;19930;-75
2022/11/09 15:06:52;;;;;;;;;;;;;;;;;;4893407;29;19921;-75
2022/11/09 15:09:39;;;;;;;;;;;;;;;;;;4904238;29;19915;-75
2022/11/09 15:12:28;;;;;;;;;;;;;;;;;;4902070;29;20414;-75
2022/11/09 15:15:14;;;;;;;;;;;;;;;;;;4908824;29;19915;-75
2022/11/09 15:18:02;;;;;;;;;;;;;;;;;;4902665;29;20379;-76
2022/11/09 15:20:48;;;;;;;;;;;;;;;;;;4902640;29;20291;-75
2022/11/09 15:23:35;;;;;;;;;;;;;;;;;;4899690;29;19916;-76
2022/11/09 15:26:21;;;;;;;;;;;;;;;;;;4906325;29;20368;-74
2022/11/09 15:29:08;;;;;;;;;;;;;;;;;;4904890;29;19922;-74
2022/11/09 15:31:54;;;;;;;;;;;;;;;;;;4901641;29;20383;-75
2022/11/09 15:34:41;;;;;;;;;;;;;;;;;;4891082;29;19922;-76
2022/11/09 15:37:28;;;;;;;;;;;;;;;;;;4901688;29;20395;-76
2022/11/09 15:40:14;;;;;;;;;;;;;;;;;;4904099;29;19922;-74
2022/11/09 15:43:01;;;;;;;;;;;;;;;;;;4896329;29;19922;-75
2022/11/09 15:45:47;;;;;;;;;;;;;;;;;;4907402;29;19938;-77
2022/11/09 15:48:34;;;;;;;;;;;;;;;;;;4908696;29;19923;-77
2022/11/09 15:51:22;;;;;;;;;;;;;;;;;;4880512;29;21898;-77
2022/11/09 15:54:09;;;;;;;;;;;;;;;;;;4903112;29;19915;-77
2022/11/09 15:56:55;;;;;;;;;;;;;;;;;;4908158;29;19919;-78
2022/11/09 15:59:42;;;;;;;;;;;;;;;;;;4907108;29;20406;-78
2022/11/09 16:02:28;;;;;;;;;;;;;;;;;;4901658;29;19919;-79
2022/11/09 16:05:15;;;;;;;;;;;;;;;;;;4909051;29;19930;-77
2022/11/09 16:08:01;;;;;;;;;;;;;;;;;;4904085;29;19922;-75
2022/11/09 16:10:48;;;;;;;;;;;;;;;;;;4887630;29;19930;-74
2022/11/09 16:13:34;;;;;;;;;;;;;;;;;;4910845;29;19912;-74
2022/11/09 16:16:21;;;;;;;;;;;;;;;;;;4908777;29;19919;-75
2022/11/09 16:19:07;;;;;;;;;;;;;;;;;;4897247;29;20299;-75
2022/11/09 16:21:54;;;;;;;;;;;;;;;;;;4896177;29;19915;-74
2022/11/09 16:24:40;;;;;;;;;;;;;;;;;;4895416;29;19912;-76
2022/11/09 16:27:27;;;;;;;;;;;;;;;;;;4902088;29;19998;-75
2022/11/09 16:30:13;;;;;;;;;;;;;;;;;;4908243;29;19926;-78
2022/11/09 16:33:00;;;;;;;;;;;;;;;;;;4888523;29;19919;-75
2022/11/09 16:35:46;;;;;;;;;;;;;;;;;;4906036;29;19923;-75
2022/11/09 16:38:33;;;;;;;;;;;;;;;;;;4903245;29;19931;-75
2022/11/09 16:41:19;;;;;;;;;;;;;;;;;;4895968;29;19915;-76
2022/11/09 16:44:06;;;;;;;;;;;;;;;;;;4890657;29;19911;-75
2022/11/09 16:46:52;;;;;;;;;;;;;;;;;;4894645;29;19915;-76
2022/11/09 16:49:39;;;;;;;;;;;;;;;;;;4905686;29;19919;-76
2022/11/09 16:52:25;;;;;;;;;;;;;;;;;;4894167;29;19945;-75
2022/11/09 16:55:12;;;;;;;;;;;;;;;;;;4902953;29;19915;-75
2022/11/09 16:57:58;;;;;;;;;;;;;;;;;;4887589;29;19919;-75
2022/11/09 17:00:45;;;;;;;;;;;;;;;;;;4888140;29;19922;-76
2022/11/09 17:03:32;;;;;;;;;;;;;;;;;;4886878;29;19923;-76
2022/11/09 17:06:18;;;;;;;;;;;;;;;;;;4902520;29;19915;-76
2022/11/09 17:09:05;;;;;;;;;;;;;;;;;;4913811;29;19911;-75
2022/11/09 17:11:51;;;;;;;;;;;;;;;;;;4908160;29;19917;-76
2022/11/09 17:14:37;;;;;;;;;;;;;;;;;;4905468;29;19916;-75
2022/11/09 17:17:24;;;;;;;;;;;;;;;;;;4895096;29;20026;-75
2022/11/09 17:20:10;;;;;;;;;;;;;;;;;;4898572;29;20355;-75
2022/11/09 17:22:57;;;;;;;;;;;;;;;;;;4896822;29;19915;-75
2022/11/09 17:25:43;;;;;;;;;;;;;;;;;;4900800;29;20437;-75
2022/11/09 17:28:30;;;;;;;;;;;;;;;;;;4894106;29;19923;-75
2022/11/09 17:31:16;;;;;;;;;;;;;;;;;;4904495;29;19923;-75
2022/11/09 17:34:03;;;;;;;;;;;;;;;;;;4910122;29;19915;-75
2022/11/09 17:36:49;;;;;;;;;;;;;;;;;;4912076;29;19919;-75
2022/11/09 17:39:36;;;;;;;;;;;;;;;;;;4910116;29;19924;-75
2022/11/09 17:42:22;;;;;;;;;;;;;;;;;;4890645;29;19922;-75
2022/11/09 17:45:09;;;;;;;;;;;;;;;;;;4909109;29;19920;-76
2022/11/09 17:47:55;;;;;;;;;;;;;;;;;;4910125;29;19915;-75
2022/11/09 17:50:42;;;;;;;;;;;;;;;;;;4900295;29;19926;-75
2022/11/09 17:53:28;;;;;;;;;;;;;;;;;;4913201;29;20359;-75
2022/11/09 17:56:15;;;;;;;;;;;;;;;;;;4908954;29;19919;-76
2022/11/09 17:59:01;;;;;;;;;;;;;;;;;;4895413;29;19926;-75
2022/11/09 18:01:48;;;;;;;;;;;;;;;;;;4914600;29;19918;-75
2022/11/09 18:04:34;;;;;;;;;;;;;;;;;;4910764;29;19926;-75
2022/11/09 18:07:20;;;;;;;;;;;;;;;;;;4899696;29;19920;-75
2022/11/09 18:10:07;;;;;;;;;;;;;;;;;;4911656;29;19915;-75
2022/11/09 18:12:53;;;;;;;;;;;;;;;;;;4914377;29;19927;-75
2022/11/09 18:15:40;;;;;;;;;;;;;;;;;;4909366;29;19974;-75
2022/11/09 18:18:28;;;;;;;;;;;;;;;;;;4908018;29;20374;-75
2022/11/09 18:21:14;;;;;;;;;;;;;;;;;;4900988;29;19926;-75
2022/11/09 18:24:01;;;;;;;;;;;;;;;;;;4906077;29;19934;-75
2022/11/09 18:26:47;;;;;;;;;;;;;;;;;;4906054;29;19919;-75
2022/11/09 18:29:34;;;;;;;;;;;;;;;;;;4909044;29;19919;-75
2022/11/09 18:32:20;;;;;;;;;;;;;;;;;;4906551;29;20244;-75
2022/11/09 18:35:07;;;;;;;;;;;;;;;;;;4910119;29;19927;-76
2022/11/09 18:37:54;;;;;;;;;;;;;;;;;;4906776;29;19930;-76
2022/11/09 18:40:41;;;;;;;;;;;;;;;;;;4903161;29;19920;-76
2022/11/09 18:43:27;;;;;;;;;;;;;;;;;;4914281;29;19918;-76
2022/11/09 18:46:14;;;;;;;;;;;;;;;;;;4904568;29;19923;-75
2022/11/09 18:49:00;;;;;;;;;;;;;;;;;;4910726;29;20370;-75
2022/11/09 18:51:47;;;;;;;;;;;;;;;;;;4904114;29;19915;-75
2022/11/09 18:54:34;;;;;;;;;;;;;;;;;;4907583;29;19920;-75
2022/11/09 18:57:21;;;;;;;;;;;;;;;;;;4907640;29;19919;-75
2022/11/09 19:00:07;;;;;;;;;;;;;;;;;;4904338;29;19925;-75